createdAt,value
2022-07-25T00:01:17.038Z,98605.22
2022-07-25T00:11:27.258Z,98608.53
2022-07-25T00:21:33.943Z,98608.25
2022-07-25T00:31:40.361Z,98596.56
2022-07-25T00:41:46.743Z,98582.13
2022-07-25T00:51:54.521Z,98571.00
2022-07-25T01:02:04.012Z,98579.88
2022-07-25T01:12:10.695Z,98571.56
2022-07-25T01:22:17.049Z,98576.09
2022-07-25T01:32:23.510Z,98566.22
2022-07-25T01:42:29.978Z,98562.75
2022-07-25T01:52:40.807Z,98551.50
2022-07-25T02:02:47.292Z,98543.59
2022-07-25T02:12:53.613Z,98544.13
2022-07-25T02:22:59.971Z,98544.47
2022-07-25T02:33:06.281Z,98535.69
2022-07-25T02:43:12.625Z,98547.19
2022-07-25T02:53:46.810Z,98548.41
2022-07-25T03:03:47.825Z,98556.38
2022-07-25T03:13:54.183Z,98552.63
2022-07-25T03:24:00.662Z,98557.31
2022-07-25T03:34:07.706Z,98542.00
2022-07-25T03:44:14.739Z,98533.03
2022-07-25T03:54:21.290Z,98521.84
2022-07-25T04:04:27.629Z,98529.06
2022-07-25T04:14:33.950Z,98521.47
2022-07-25T04:24:40.360Z,98533.41
2022-07-25T04:34:47.073Z,98524.88
2022-07-25T04:44:53.392Z,98536.22
2022-07-25T04:54:59.765Z,98533.56
2022-07-25T05:05:06.599Z,98528.31
2022-07-25T05:15:13.613Z,98530.13
2022-07-25T05:25:20.406Z,98516.78
2022-07-25T05:35:26.751Z,98513.41
2022-07-25T05:45:33.481Z,98510.72
2022-07-25T05:55:40.828Z,98504.97
2022-07-25T06:05:48.071Z,98489.84
2022-07-25T06:15:54.443Z,98476.78
2022-07-25T06:26:00.825Z,98483.16
2022-07-25T06:36:07.960Z,98472.03
2022-07-25T06:46:14.354Z,98465.56
2022-07-25T06:56:20.687Z,98462.31
2022-07-25T07:06:27.100Z,98454.13
2022-07-25T07:16:33.480Z,98451.75
2022-07-25T07:26:39.877Z,98447.81
2022-07-25T07:36:46.257Z,98439.84
2022-07-25T07:46:52.957Z,98433.91
2022-07-25T07:56:59.391Z,98430.06
2022-07-25T08:07:05.735Z,98410.88
2022-07-25T08:17:12.811Z,98404.41
2022-07-25T08:27:19.252Z,98399.91
2022-07-25T08:37:25.618Z,98399.66
2022-07-25T08:47:32.008Z,98394.81
2022-07-25T08:57:39.513Z,98392.03
2022-07-25T09:07:45.803Z,98384.69
2022-07-25T09:17:53.275Z,98370.59
2022-07-25T09:28:18.820Z,98367.34
2022-07-25T09:38:26.081Z,98356.47
2022-07-25T09:48:33.648Z,98346.13
2022-07-25T09:58:40.009Z,98346.50
2022-07-25T10:08:46.436Z,98328.47
2022-07-25T10:18:55.032Z,98327.19
2022-07-25T10:29:02.862Z,98327.84
2022-07-25T10:39:11.599Z,98313.81
2022-07-25T10:49:31.017Z,98298.38
2022-07-25T10:59:40.036Z,98288.06
2022-07-25T11:10:00.351Z,98272.19
2022-07-25T11:20:09.095Z,98268.81
2022-07-25T11:30:22.990Z,98247.81
2022-07-25T11:40:29.482Z,98233.72
2022-07-25T11:50:37.487Z,98232.91
2022-07-25T12:00:46.017Z,98217.25
2022-07-25T12:10:56.859Z,98202.56
2022-07-25T12:21:03.152Z,98182.09
2022-07-25T12:31:09.724Z,98169.16
2022-07-25T12:41:18.026Z,98157.66
2022-07-25T12:51:24.690Z,98144.59
2022-07-25T13:01:31.056Z,98136.72
2022-07-25T13:11:37.443Z,98130.41
2022-07-25T13:21:44.778Z,98109.22
2022-07-25T13:31:51.143Z,98107.50
2022-07-25T13:41:56.483Z,98083.31
2022-07-25T13:52:02.830Z,98078.72
2022-07-25T14:02:09.358Z,98066.13
2022-07-25T14:12:15.957Z,98047.91
2022-07-25T14:22:22.327Z,98025.63
2022-07-25T14:32:28.990Z,98016.72
2022-07-25T14:42:35.356Z,98017.59
2022-07-25T14:52:41.739Z,98005.28
2022-07-25T15:02:48.097Z,97989.22
2022-07-25T15:13:20.467Z,97982.13
2022-07-25T15:23:22.110Z,97966.00
2022-07-25T15:33:28.474Z,97944.94
2022-07-25T15:43:34.882Z,97934.03
2022-07-25T15:53:41.311Z,97925.06
2022-07-25T16:03:47.757Z,97925.38
2022-07-25T16:13:54.977Z,97920.75
2022-07-25T16:24:01.314Z,97909.97
2022-07-25T16:34:07.672Z,97900.59
2022-07-25T16:44:14.059Z,97895.03
2022-07-25T16:54:20.437Z,97894.84
2022-07-25T17:04:26.816Z,97888.22
2022-07-25T17:14:33.173Z,97884.88
2022-07-25T17:24:40.586Z,97888.34
2022-07-25T17:34:46.930Z,97879.38
2022-07-25T17:44:53.782Z,97877.72
2022-07-25T17:55:00.230Z,97877.09
2022-07-25T18:05:08.194Z,97879.41
2022-07-25T18:15:16.132Z,97865.16
2022-07-25T18:25:23.837Z,97858.75
2022-07-25T18:35:30.400Z,97852.56
2022-07-25T18:45:38.453Z,97844.69
2022-07-25T18:55:45.785Z,97834.94
2022-07-25T19:05:52.142Z,97837.16
2022-07-25T19:15:58.532Z,97835.16
2022-07-25T19:26:05.563Z,97828.19
2022-07-25T19:36:11.860Z,97825.09
2022-07-25T19:46:18.277Z,97824.81
2022-07-25T19:56:24.665Z,97817.78
2022-07-25T20:06:30.974Z,97815.63
2022-07-25T20:16:38.639Z,97818.28
2022-07-25T20:26:45.125Z,97818.94
2022-07-25T20:36:51.447Z,97820.25
2022-07-25T20:46:57.794Z,97813.97
2022-07-25T20:57:05.074Z,97824.88
2022-07-25T21:07:11.634Z,97810.00
2022-07-25T21:17:18.742Z,97826.19
2022-07-25T21:27:25.054Z,97812.13
2022-07-25T21:37:31.386Z,97813.63
2022-07-25T21:47:37.701Z,97806.50
2022-07-25T21:57:44.415Z,97807.97
2022-07-25T22:07:51.074Z,97781.97
2022-07-25T22:17:57.413Z,97780.16
2022-07-25T22:28:04.843Z,97778.47
2022-07-25T22:38:11.552Z,97773.13
2022-07-25T22:48:17.873Z,97747.06
2022-07-25T22:58:24.270Z,97730.37
2022-07-25T23:08:30.595Z,97724.41
2022-07-25T23:18:36.975Z,97698.53
2022-07-25T23:28:43.411Z,97727.53
2022-07-25T23:38:49.773Z,97723.53
2022-07-25T23:48:56.634Z,97716.25
2022-07-25T23:59:03.287Z,97709.53
